sensor_id;sensor_type;location;lat;lon;timestamp;P1;durP1;ratioP1;P2;durP2;ratioP2
76731;SDS011;65656;51.130;13.658;2023-07-08T00:02:23;14.38;;;13.13;;
76731;SDS011;65656;51.130;13.658;2023-07-08T00:06:25;17.45;;;16.25;;
76731;SDS011;65656;51.130;13.658;2023-07-08T00:10:29;18.58;;;17.42;;
76731;SDS011;65656;51.130;13.658;2023-07-08T00:14:32;20.02;;;18.77;;
76731;SDS011;65656;51.130;13.658;2023-07-08T00:18:33;16.27;;;15.15;;
76731;SDS011;65656;51.130;13.658;2023-07-08T00:22:35;13.82;;;12.90;;
76731;SDS011;65656;51.130;13.658;2023-07-08T00:26:36;13.25;;;12.20;;
76731;SDS011;65656;51.130;13.658;2023-07-08T00:30:39;15.35;;;14.25;;
76731;SDS011;65656;51.130;13.658;2023-07-08T00:34:41;15.15;;;14.07;;
76731;SDS011;65656;51.130;13.658;2023-07-08T00:38:43;17.77;;;16.73;;
76731;SDS011;65656;51.130;13.658;2023-07-08T00:42:44;17.08;;;15.95;;
76731;SDS011;65656;51.130;13.658;2023-07-08T00:46:50;17.20;;;16.13;;
76731;SDS011;65656;51.130;13.658;2023-07-08T00:51:03;16.48;;;15.38;;
76731;SDS011;65656;51.130;13.658;2023-07-08T00:55:05;15.27;;;14.05;;
76731;SDS011;65656;51.130;13.658;2023-07-08T00:59:11;7.97;;;5.78;;
76731;SDS011;65656;51.130;13.658;2023-07-08T01:03:31;17.55;;;16.50;;
76731;SDS011;65656;51.130;13.658;2023-07-08T01:07:36;13.85;;;12.85;;
76731;SDS011;65656;51.130;13.658;2023-07-08T01:11:42;15.98;;;14.88;;
76731;SDS011;65656;51.130;13.658;2023-07-08T01:15:44;11.48;;;10.45;;
76731;SDS011;65656;51.130;13.658;2023-07-08T01:19:49;16.27;;;15.20;;
76731;SDS011;65656;51.130;13.658;2023-07-08T01:23:52;7.90;;;4.88;;
76731;SDS011;65656;51.130;13.658;2023-07-08T01:27:55;14.32;;;13.35;;
76731;SDS011;65656;51.130;13.658;2023-07-08T01:31:58;19.55;;;18.35;;
76731;SDS011;65656;51.130;13.658;2023-07-08T01:36:00;8.85;;;7.88;;
76731;SDS011;65656;51.130;13.658;2023-07-08T01:40:19;14.00;;;13.05;;
76731;SDS011;65656;51.130;13.658;2023-07-08T01:44:27;15.43;;;14.43;;
76731;SDS011;65656;51.130;13.658;2023-07-08T01:48:31;11.68;;;10.85;;
76731;SDS011;65656;51.130;13.658;2023-07-08T01:52:37;15.20;;;14.02;;
76731;SDS011;65656;51.130;13.658;2023-07-08T01:56:40;12.48;;;11.52;;
76731;SDS011;65656;51.130;13.658;2023-07-08T02:00:41;14.27;;;13.32;;
76731;SDS011;65656;51.130;13.658;2023-07-08T02:04:43;15.75;;;14.75;;
76731;SDS011;65656;51.130;13.658;2023-07-08T02:08:44;16.10;;;15.00;;
76731;SDS011;65656;51.130;13.658;2023-07-08T02:12:47;17.17;;;16.02;;
76731;SDS011;65656;51.130;13.658;2023-07-08T02:16:49;13.43;;;12.60;;
76731;SDS011;65656;51.130;13.658;2023-07-08T02:20:50;8.65;;;7.82;;
76731;SDS011;65656;51.130;13.658;2023-07-08T02:24:52;14.95;;;14.02;;
76731;SDS011;65656;51.130;13.658;2023-07-08T02:28:55;15.18;;;14.18;;
76731;SDS011;65656;51.130;13.658;2023-07-08T02:32:56;12.27;;;11.48;;
76731;SDS011;65656;51.130;13.658;2023-07-08T02:36:58;13.15;;;11.75;;
76731;SDS011;65656;51.130;13.658;2023-07-08T02:41:00;14.65;;;13.65;;
76731;SDS011;65656;51.130;13.658;2023-07-08T02:45:03;15.98;;;15.07;;
76731;SDS011;65656;51.130;13.658;2023-07-08T02:49:06;13.27;;;12.38;;
76731;SDS011;65656;51.130;13.658;2023-07-08T02:53:07;6.97;;;5.13;;
76731;SDS011;65656;51.130;13.658;2023-07-08T02:57:09;14.07;;;13.25;;
76731;SDS011;65656;51.130;13.658;2023-07-08T03:01:12;13.65;;;12.85;;
76731;SDS011;65656;51.130;13.658;2023-07-08T03:05:14;6.13;;;5.13;;
76731;SDS011;65656;51.130;13.658;2023-07-08T03:09:15;13.85;;;12.95;;
76731;SDS011;65656;51.130;13.658;2023-07-08T03:13:17;13.15;;;12.23;;
76731;SDS011;65656;51.130;13.658;2023-07-08T03:17:20;12.07;;;11.27;;
76731;SDS011;65656;51.130;13.658;2023-07-08T03:21:21;13.25;;;12.35;;
76731;SDS011;65656;51.130;13.658;2023-07-08T03:25:23;13.05;;;11.88;;
76731;SDS011;65656;51.130;13.658;2023-07-08T03:29:25;13.80;;;12.85;;
76731;SDS011;65656;51.130;13.658;2023-07-08T03:33:27;15.07;;;14.13;;
76731;SDS011;65656;51.130;13.658;2023-07-08T03:37:29;17.15;;;15.82;;
76731;SDS011;65656;51.130;13.658;2023-07-08T03:41:30;12.65;;;11.65;;
76731;SDS011;65656;51.130;13.658;2023-07-08T03:45:32;13.85;;;12.88;;
76731;SDS011;65656;51.130;13.658;2023-07-08T03:49:35;16.55;;;15.48;;
76731;SDS011;65656;51.130;13.658;2023-07-08T03:53:37;13.98;;;12.98;;
76731;SDS011;65656;51.130;13.658;2023-07-08T03:57:38;14.10;;;12.93;;
76731;SDS011;65656;51.130;13.658;2023-07-08T04:01:40;17.52;;;16.27;;
76731;SDS011;65656;51.130;13.658;2023-07-08T04:05:43;19.95;;;18.75;;
76731;SDS011;65656;51.130;13.658;2023-07-08T04:09:45;15.18;;;14.27;;
76731;SDS011;65656;51.130;13.658;2023-07-08T04:13:46;17.13;;;16.05;;
76731;SDS011;65656;51.130;13.658;2023-07-08T04:17:48;13.82;;;12.95;;
76731;SDS011;65656;51.130;13.658;2023-07-08T04:21:51;16.33;;;15.30;;
76731;SDS011;65656;51.130;13.658;2023-07-08T04:25:53;11.43;;;10.63;;
76731;SDS011;65656;51.130;13.658;2023-07-08T04:29:57;12.43;;;11.63;;
76731;SDS011;65656;51.130;13.658;2023-07-08T04:33:59;14.55;;;13.40;;
76731;SDS011;65656;51.130;13.658;2023-07-08T04:38:02;15.18;;;14.02;;
76731;SDS011;65656;51.130;13.658;2023-07-08T04:42:03;13.10;;;12.15;;
76731;SDS011;65656;51.130;13.658;2023-07-08T04:46:06;6.25;;;5.65;;
76731;SDS011;65656;51.130;13.658;2023-07-08T04:50:31;11.85;;;10.73;;
76731;SDS011;65656;51.130;13.658;2023-07-08T04:54:34;11.23;;;10.43;;
76731;SDS011;65656;51.130;13.658;2023-07-08T04:58:35;12.85;;;11.95;;
76731;SDS011;65656;51.130;13.658;2023-07-08T05:02:37;12.10;;;11.13;;
76731;SDS011;65656;51.130;13.658;2023-07-08T05:06:38;5.18;;;4.68;;
76731;SDS011;65656;51.130;13.658;2023-07-08T05:10:41;15.75;;;14.75;;
76731;SDS011;65656;51.130;13.658;2023-07-08T05:14:43;12.40;;;11.30;;
76731;SDS011;65656;51.130;13.658;2023-07-08T05:18:44;13.88;;;12.88;;
76731;SDS011;65656;51.130;13.658;2023-07-08T05:22:46;12.10;;;11.30;;
76731;SDS011;65656;51.130;13.658;2023-07-08T05:26:49;12.43;;;9.95;;
76731;SDS011;65656;51.130;13.658;2023-07-08T05:30:52;13.07;;;12.18;;
76731;SDS011;65656;51.130;13.658;2023-07-08T05:34:54;12.95;;;12.00;;
76731;SDS011;65656;51.130;13.658;2023-07-08T05:38:56;11.25;;;10.45;;
76731;SDS011;65656;51.130;13.658;2023-07-08T05:42:59;9.73;;;8.70;;
76731;SDS011;65656;51.130;13.658;2023-07-08T05:47:02;14.70;;;13.80;;
76731;SDS011;65656;51.130;13.658;2023-07-08T05:51:03;6.45;;;5.40;;
76731;SDS011;65656;51.130;13.658;2023-07-08T05:55:05;13.30;;;12.40;;
76731;SDS011;65656;51.130;13.658;2023-07-08T05:59:08;12.23;;;11.43;;
76731;SDS011;65656;51.130;13.658;2023-07-08T06:03:10;10.32;;;9.45;;
76731;SDS011;65656;51.130;13.658;2023-07-08T06:07:11;11.95;;;10.88;;
76731;SDS011;65656;51.130;13.658;2023-07-08T06:11:13;11.27;;;10.32;;
76731;SDS011;65656;51.130;13.658;2023-07-08T06:15:16;10.65;;;9.80;;
76731;SDS011;65656;51.130;13.658;2023-07-08T06:19:17;11.50;;;10.60;;
76731;SDS011;65656;51.130;13.658;2023-07-08T06:23:19;11.05;;;10.20;;
76731;SDS011;65656;51.130;13.658;2023-07-08T06:27:21;12.73;;;11.45;;
76731;SDS011;65656;51.130;13.658;2023-07-08T06:31:23;10.10;;;9.20;;
76731;SDS011;65656;51.130;13.658;2023-07-08T06:35:25;13.30;;;12.50;;
76731;SDS011;65656;51.130;13.658;2023-07-08T06:39:26;11.20;;;10.50;;
76731;SDS011;65656;51.130;13.658;2023-07-08T06:43:28;9.30;;;8.45;;
76731;SDS011;65656;51.130;13.658;2023-07-08T06:47:31;12.30;;;11.07;;
76731;SDS011;65656;51.130;13.658;2023-07-08T06:51:33;11.00;;;10.18;;
76731;SDS011;65656;51.130;13.658;2023-07-08T06:55:35;10.32;;;9.43;;
76731;SDS011;65656;51.130;13.658;2023-07-08T06:59:36;8.63;;;7.93;;
76731;SDS011;65656;51.130;13.658;2023-07-08T07:03:39;5.63;;;3.80;;
76731;SDS011;65656;51.130;13.658;2023-07-08T07:07:40;12.10;;;11.32;;
76731;SDS011;65656;51.130;13.658;2023-07-08T07:11:42;9.43;;;8.73;;
76731;SDS011;65656;51.130;13.658;2023-07-08T07:15:43;9.55;;;8.75;;
76731;SDS011;65656;51.130;13.658;2023-07-08T07:19:47;10.35;;;9.45;;
76731;SDS011;65656;51.130;13.658;2023-07-08T07:23:48;14.68;;;13.73;;
76731;SDS011;65656;51.130;13.658;2023-07-08T07:27:49;9.70;;;8.70;;
76731;SDS011;65656;51.130;13.658;2023-07-08T07:31:51;9.30;;;8.50;;
76731;SDS011;65656;51.130;13.658;2023-07-08T07:35:54;8.32;;;7.53;;
76731;SDS011;65656;51.130;13.658;2023-07-08T07:39:56;9.10;;;8.23;;
76731;SDS011;65656;51.130;13.658;2023-07-08T07:43:58;7.85;;;7.25;;
76731;SDS011;65656;51.130;13.658;2023-07-08T07:47:59;9.32;;;8.43;;
76731;SDS011;65656;51.130;13.658;2023-07-08T07:52:02;10.13;;;9.18;;
76731;SDS011;65656;51.130;13.658;2023-07-08T07:56:04;10.55;;;9.68;;
76731;SDS011;65656;51.130;13.658;2023-07-08T08:00:07;5.47;;;4.72;;
76731;SDS011;65656;51.130;13.658;2023-07-08T08:04:10;14.30;;;7.35;;
76731;SDS011;65656;51.130;13.658;2023-07-08T08:08:13;9.68;;;8.88;;
76731;SDS011;65656;51.130;13.658;2023-07-08T08:12:15;8.57;;;7.78;;
76731;SDS011;65656;51.130;13.658;2023-07-08T08:16:16;8.65;;;7.95;;
76731;SDS011;65656;51.130;13.658;2023-07-08T08:20:18;7.60;;;6.95;;
76731;SDS011;65656;51.130;13.658;2023-07-08T08:24:22;8.85;;;6.75;;
76731;SDS011;65656;51.130;13.658;2023-07-08T08:32:26;7.32;;;6.72;;
76731;SDS011;65656;51.130;13.658;2023-07-08T08:36:27;6.13;;;3.28;;
76731;SDS011;65656;51.130;13.658;2023-07-08T08:40:31;7.15;;;6.30;;
76731;SDS011;65656;51.130;13.658;2023-07-08T08:44:34;7.85;;;6.82;;
76731;SDS011;65656;51.130;13.658;2023-07-08T08:48:38;6.45;;;5.85;;
76731;SDS011;65656;51.130;13.658;2023-07-08T08:52:44;7.00;;;6.28;;
76731;SDS011;65656;51.130;13.658;2023-07-08T08:56:56;10.82;;;7.07;;
76731;SDS011;65656;51.130;13.658;2023-07-08T09:01:07;8.73;;;8.00;;
76731;SDS011;65656;51.130;13.658;2023-07-08T09:05:13;8.60;;;7.72;;
76731;SDS011;65656;51.130;13.658;2023-07-08T09:09:15;5.97;;;4.28;;
76731;SDS011;65656;51.130;13.658;2023-07-08T09:13:24;6.35;;;5.68;;
76731;SDS011;65656;51.130;13.658;2023-07-08T09:17:30;5.90;;;5.32;;
76731;SDS011;65656;51.130;13.658;2023-07-08T09:21:36;7.45;;;6.32;;
76731;SDS011;65656;51.130;13.658;2023-07-08T09:25:43;9.40;;;7.85;;
76731;SDS011;65656;51.130;13.658;2023-07-08T09:29:52;10.25;;;9.57;;
76731;SDS011;65656;51.130;13.658;2023-07-08T09:34:04;7.10;;;6.50;;
76731;SDS011;65656;51.130;13.658;2023-07-08T09:38:15;9.63;;;6.47;;
76731;SDS011;65656;51.130;13.658;2023-07-08T09:42:18;6.60;;;6.00;;
76731;SDS011;65656;51.130;13.658;2023-07-08T09:46:23;6.93;;;5.93;;
76731;SDS011;65656;51.130;13.658;2023-07-08T09:50:26;5.18;;;3.75;;
76731;SDS011;65656;51.130;13.658;2023-07-08T09:54:28;6.15;;;5.65;;
76731;SDS011;65656;51.130;13.658;2023-07-08T09:58:30;9.25;;;8.45;;
76731;SDS011;65656;51.130;13.658;2023-07-08T10:02:38;6.45;;;5.95;;
76731;SDS011;65656;51.130;13.658;2023-07-08T10:06:42;5.95;;;5.35;;
76731;SDS011;65656;51.130;13.658;2023-07-08T10:10:46;5.40;;;4.90;;
76731;SDS011;65656;51.130;13.658;2023-07-08T10:14:54;5.13;;;4.63;;
76731;SDS011;65656;51.130;13.658;2023-07-08T10:19:00;7.70;;;6.97;;
76731;SDS011;65656;51.130;13.658;2023-07-08T10:23:14;5.63;;;4.95;;
76731;SDS011;65656;51.130;13.658;2023-07-08T10:27:25;6.95;;;6.10;;
76731;SDS011;65656;51.130;13.658;2023-07-08T10:31:31;9.40;;;7.35;;
76731;SDS011;65656;51.130;13.658;2023-07-08T10:35:42;5.82;;;5.25;;
76731;SDS011;65656;51.130;13.658;2023-07-08T10:39:57;6.32;;;4.65;;
76731;SDS011;65656;51.130;13.658;2023-07-08T10:44:18;6.65;;;4.13;;
76731;SDS011;65656;51.130;13.658;2023-07-08T10:48:31;7.55;;;6.53;;
76731;SDS011;65656;51.130;13.658;2023-07-08T10:52:49;6.45;;;5.18;;
76731;SDS011;65656;51.130;13.658;2023-07-08T10:57:01;5.88;;;5.38;;
76731;SDS011;65656;51.130;13.658;2023-07-08T11:01:17;6.97;;;5.47;;
76731;SDS011;65656;51.130;13.658;2023-07-08T11:05:27;7.55;;;6.07;;
76731;SDS011;65656;51.130;13.658;2023-07-08T11:09:38;4.25;;;2.53;;
76731;SDS011;65656;51.130;13.658;2023-07-08T11:13:44;4.60;;;3.22;;
76731;SDS011;65656;51.130;13.658;2023-07-08T11:17:52;5.85;;;5.30;;
76731;SDS011;65656;51.130;13.658;2023-07-08T11:22:00;6.85;;;5.85;;
76731;SDS011;65656;51.130;13.658;2023-07-08T11:26:12;7.93;;;5.93;;
76731;SDS011;65656;51.130;13.658;2023-07-08T11:30:20;6.70;;;5.90;;
76731;SDS011;65656;51.130;13.658;2023-07-08T11:34:23;5.75;;;5.13;;
76731;SDS011;65656;51.130;13.658;2023-07-08T11:38:26;6.05;;;5.05;;
76731;SDS011;65656;51.130;13.658;2023-07-08T11:42:32;5.53;;;5.03;;
76731;SDS011;65656;51.130;13.658;2023-07-08T11:46:37;9.57;;;8.73;;
76731;SDS011;65656;51.130;13.658;2023-07-08T11:50:55;6.68;;;5.57;;
76731;SDS011;65656;51.130;13.658;2023-07-08T11:54:58;4.80;;;3.75;;
76731;SDS011;65656;51.130;13.658;2023-07-08T11:59:10;5.18;;;4.20;;
76731;SDS011;65656;51.130;13.658;2023-07-08T12:03:18;5.50;;;4.95;;
76731;SDS011;65656;51.130;13.658;2023-07-08T12:07:28;5.60;;;4.05;;
76731;SDS011;65656;51.130;13.658;2023-07-08T12:12:02;5.13;;;3.90;;
76731;SDS011;65656;51.130;13.658;2023-07-08T12:16:09;4.50;;;2.65;;
76731;SDS011;65656;51.130;13.658;2023-07-08T12:20:16;5.30;;;3.50;;
76731;SDS011;65656;51.130;13.658;2023-07-08T12:24:20;4.45;;;2.92;;
76731;SDS011;65656;51.130;13.658;2023-07-08T12:28:23;5.47;;;3.67;;
76731;SDS011;65656;51.130;13.658;2023-07-08T12:32:25;4.28;;;3.05;;
76731;SDS011;65656;51.130;13.658;2023-07-08T12:36:28;5.15;;;3.38;;
76731;SDS011;65656;51.130;13.658;2023-07-08T12:40:31;4.05;;;3.00;;
76731;SDS011;65656;51.130;13.658;2023-07-08T12:44:34;7.38;;;2.92;;
76731;SDS011;65656;51.130;13.658;2023-07-08T12:48:36;5.35;;;4.07;;
76731;SDS011;65656;51.130;13.658;2023-07-08T12:52:38;5.55;;;3.00;;
76731;SDS011;65656;51.130;13.658;2023-07-08T12:56:42;4.47;;;3.05;;
76731;SDS011;65656;51.130;13.658;2023-07-08T13:00:47;4.20;;;3.03;;
76731;SDS011;65656;51.130;13.658;2023-07-08T13:04:52;4.93;;;3.45;;
76731;SDS011;65656;51.130;13.658;2023-07-08T13:08:57;6.85;;;3.83;;
76731;SDS011;65656;51.130;13.658;2023-07-08T13:13:03;5.55;;;2.78;;
76731;SDS011;65656;51.130;13.658;2023-07-08T13:17:09;4.93;;;3.78;;
76731;SDS011;65656;51.130;13.658;2023-07-08T13:21:13;6.13;;;2.97;;
76731;SDS011;65656;51.130;13.658;2023-07-08T13:25:17;5.07;;;3.88;;
76731;SDS011;65656;51.130;13.658;2023-07-08T13:29:22;6.40;;;4.68;;
76731;SDS011;65656;51.130;13.658;2023-07-08T13:33:28;6.50;;;3.30;;
76731;SDS011;65656;51.130;13.658;2023-07-08T13:37:31;4.45;;;2.78;;
76731;SDS011;65656;51.130;13.658;2023-07-08T13:41:32;3.92;;;3.08;;
76731;SDS011;65656;51.130;13.658;2023-07-08T13:45:34;4.70;;;3.38;;
76731;SDS011;65656;51.130;13.658;2023-07-08T13:49:40;4.25;;;2.78;;
76731;SDS011;65656;51.130;13.658;2023-07-08T13:53:46;4.40;;;3.05;;
76731;SDS011;65656;51.130;13.658;2023-07-08T13:57:55;3.40;;;2.60;;
76731;SDS011;65656;51.130;13.658;2023-07-08T14:01:58;4.78;;;2.72;;
76731;SDS011;65656;51.130;13.658;2023-07-08T14:06:01;3.60;;;2.45;;
76731;SDS011;65656;51.130;13.658;2023-07-08T14:10:04;4.38;;;2.92;;
76731;SDS011;65656;51.130;13.658;2023-07-08T14:14:11;6.28;;;2.60;;
76731;SDS011;65656;51.130;13.658;2023-07-08T14:18:13;3.95;;;2.50;;
76731;SDS011;65656;51.130;13.658;2023-07-08T14:22:20;4.63;;;2.92;;
76731;SDS011;65656;51.130;13.658;2023-07-08T14:26:27;5.43;;;2.97;;
76731;SDS011;65656;51.130;13.658;2023-07-08T14:30:30;4.03;;;2.95;;
76731;SDS011;65656;51.130;13.658;2023-07-08T14:34:31;5.00;;;3.65;;
76731;SDS011;65656;51.130;13.658;2023-07-08T14:38:36;5.15;;;2.90;;
76731;SDS011;65656;51.130;13.658;2023-07-08T14:42:38;4.03;;;2.55;;
76731;SDS011;65656;51.130;13.658;2023-07-08T14:46:39;7.13;;;2.95;;
76731;SDS011;65656;51.130;13.658;2023-07-08T14:50:41;4.80;;;3.30;;
76731;SDS011;65656;51.130;13.658;2023-07-08T14:54:44;5.75;;;3.17;;
76731;SDS011;65656;51.130;13.658;2023-07-08T14:58:46;4.55;;;2.97;;
76731;SDS011;65656;51.130;13.658;2023-07-08T15:02:48;3.80;;;2.72;;
76731;SDS011;65656;51.130;13.658;2023-07-08T15:06:52;4.38;;;3.22;;
76731;SDS011;65656;51.130;13.658;2023-07-08T15:14:59;5.57;;;2.67;;
76731;SDS011;65656;51.130;13.658;2023-07-08T15:19:00;4.97;;;3.38;;
76731;SDS011;65656;51.130;13.658;2023-07-08T15:23:02;3.65;;;2.80;;
76731;SDS011;65656;51.130;13.658;2023-07-08T15:27:05;3.78;;;2.65;;
76731;SDS011;65656;51.130;13.658;2023-07-08T15:31:10;4.97;;;3.75;;
76731;SDS011;65656;51.130;13.658;2023-07-08T15:35:16;4.10;;;2.70;;
76731;SDS011;65656;51.130;13.658;2023-07-08T15:39:18;6.63;;;3.92;;
76731;SDS011;65656;51.130;13.658;2023-07-08T15:43:21;3.70;;;2.83;;
76731;SDS011;65656;51.130;13.658;2023-07-08T15:47:23;4.63;;;2.70;;
76731;SDS011;65656;51.130;13.658;2023-07-08T15:51:24;4.38;;;3.03;;
76731;SDS011;65656;51.130;13.658;2023-07-08T15:55:26;4.10;;;2.88;;
76731;SDS011;65656;51.130;13.658;2023-07-08T15:59:32;4.30;;;3.40;;
76731;SDS011;65656;51.130;13.658;2023-07-08T16:03:35;3.60;;;2.42;;
76731;SDS011;65656;51.130;13.658;2023-07-08T16:07:37;4.07;;;2.55;;
76731;SDS011;65656;51.130;13.658;2023-07-08T16:11:39;4.45;;;2.88;;
76731;SDS011;65656;51.130;13.658;2023-07-08T16:15:42;5.63;;;2.75;;
76731;SDS011;65656;51.130;13.658;2023-07-08T16:19:44;4.88;;;3.30;;
76731;SDS011;65656;51.130;13.658;2023-07-08T16:23:45;5.32;;;4.13;;
76731;SDS011;65656;51.130;13.658;2023-07-08T16:27:47;5.38;;;4.68;;
76731;SDS011;65656;51.130;13.658;2023-07-08T16:31:52;6.85;;;5.63;;
76731;SDS011;65656;51.130;13.658;2023-07-08T16:35:54;4.90;;;3.95;;
76731;SDS011;65656;51.130;13.658;2023-07-08T16:39:55;5.90;;;3.30;;
76731;SDS011;65656;51.130;13.658;2023-07-08T16:43:57;4.10;;;2.92;;
76731;SDS011;65656;51.130;13.658;2023-07-08T16:47:59;4.03;;;3.20;;
76731;SDS011;65656;51.130;13.658;2023-07-08T16:52:01;5.30;;;3.60;;
76731;SDS011;65656;51.130;13.658;2023-07-08T16:56:03;5.00;;;3.40;;
76731;SDS011;65656;51.130;13.658;2023-07-08T17:00:05;5.13;;;3.85;;
76731;SDS011;65656;51.130;13.658;2023-07-08T17:04:09;6.38;;;4.28;;
76731;SDS011;65656;51.130;13.658;2023-07-08T17:08:13;5.35;;;4.18;;
76731;SDS011;65656;51.130;13.658;2023-07-08T17:12:16;7.80;;;3.47;;
76731;SDS011;65656;51.130;13.658;2023-07-08T17:16:18;5.93;;;3.58;;
76731;SDS011;65656;51.130;13.658;2023-07-08T17:20:28;7.57;;;3.45;;
76731;SDS011;65656;51.130;13.658;2023-07-08T17:24:32;4.90;;;4.15;;
76731;SDS011;65656;51.130;13.658;2023-07-08T17:28:34;6.32;;;5.03;;
76731;SDS011;65656;51.130;13.658;2023-07-08T17:32:35;4.82;;;4.30;;
76731;SDS011;65656;51.130;13.658;2023-07-08T17:36:38;5.50;;;3.53;;
76731;SDS011;65656;51.130;13.658;2023-07-08T17:40:40;5.65;;;3.63;;
76731;SDS011;65656;51.130;13.658;2023-07-08T17:44:43;5.15;;;3.22;;
76731;SDS011;65656;51.130;13.658;2023-07-08T17:48:45;4.70;;;3.55;;
76731;SDS011;65656;51.130;13.658;2023-07-08T17:52:48;6.45;;;3.42;;
76731;SDS011;65656;51.130;13.658;2023-07-08T17:56:50;4.88;;;4.05;;
76731;SDS011;65656;51.130;13.658;2023-07-08T18:00:52;6.75;;;5.65;;
76731;SDS011;65656;51.130;13.658;2023-07-08T18:04:53;7.22;;;3.97;;
76731;SDS011;65656;51.130;13.658;2023-07-08T18:08:56;7.13;;;4.30;;
76731;SDS011;65656;51.130;13.658;2023-07-08T18:12:58;6.07;;;4.68;;
76731;SDS011;65656;51.130;13.658;2023-07-08T18:17:01;6.45;;;4.35;;
76731;SDS011;65656;51.130;13.658;2023-07-08T18:21:04;7.55;;;4.18;;
76731;SDS011;65656;51.130;13.658;2023-07-08T18:25:15;8.48;;;3.60;;
76731;SDS011;65656;51.130;13.658;2023-07-08T18:29:18;7.18;;;6.50;;
76731;SDS011;65656;51.130;13.658;2023-07-08T18:33:20;6.55;;;4.80;;
76731;SDS011;65656;51.130;13.658;2023-07-08T18:37:22;6.47;;;4.38;;
76731;SDS011;65656;51.130;13.658;2023-07-08T18:41:25;6.57;;;5.88;;
76731;SDS011;65656;51.130;13.658;2023-07-08T18:45:30;6.50;;;4.55;;
76731;SDS011;65656;51.130;13.658;2023-07-08T18:49:32;5.63;;;5.10;;
76731;SDS011;65656;51.130;13.658;2023-07-08T18:53:33;7.65;;;5.10;;
76731;SDS011;65656;51.130;13.658;2023-07-08T18:57:36;5.05;;;4.45;;
76731;SDS011;65656;51.130;13.658;2023-07-08T19:01:38;6.28;;;4.40;;
76731;SDS011;65656;51.130;13.658;2023-07-08T19:05:42;6.45;;;4.60;;
76731;SDS011;65656;51.130;13.658;2023-07-08T19:09:43;5.60;;;3.45;;
76731;SDS011;65656;51.130;13.658;2023-07-08T19:13:46;6.13;;;5.20;;
76731;SDS011;65656;51.130;13.658;2023-07-08T19:17:48;6.32;;;5.38;;
76731;SDS011;65656;51.130;13.658;2023-07-08T19:21:51;9.32;;;5.30;;
76731;SDS011;65656;51.130;13.658;2023-07-08T19:25:56;8.75;;;5.00;;
76731;SDS011;65656;51.130;13.658;2023-07-08T19:29:59;15.02;;;5.18;;
76731;SDS011;65656;51.130;13.658;2023-07-08T19:34:01;9.75;;;7.20;;
76731;SDS011;65656;51.130;13.658;2023-07-08T19:38:04;9.43;;;4.85;;
76731;SDS011;65656;51.130;13.658;2023-07-08T19:42:07;11.50;;;5.57;;
76731;SDS011;65656;51.130;13.658;2023-07-08T19:46:15;6.80;;;4.82;;
76731;SDS011;65656;51.130;13.658;2023-07-08T19:50:17;9.63;;;6.65;;
76731;SDS011;65656;51.130;13.658;2023-07-08T19:54:20;9.05;;;4.93;;
76731;SDS011;65656;51.130;13.658;2023-07-08T19:58:21;8.00;;;4.32;;
76731;SDS011;65656;51.130;13.658;2023-07-08T20:02:24;8.95;;;5.07;;
76731;SDS011;65656;51.130;13.658;2023-07-08T20:06:26;8.23;;;6.95;;
76731;SDS011;65656;51.130;13.658;2023-07-08T20:10:28;8.23;;;5.38;;
76731;SDS011;65656;51.130;13.658;2023-07-08T20:14:30;6.35;;;5.55;;
76731;SDS011;65656;51.130;13.658;2023-07-08T20:18:33;6.40;;;5.80;;
76731;SDS011;65656;51.130;13.658;2023-07-08T20:22:34;7.55;;;6.93;;
76731;SDS011;65656;51.130;13.658;2023-07-08T20:26:36;7.07;;;6.45;;
76731;SDS011;65656;51.130;13.658;2023-07-08T20:30:41;8.05;;;7.30;;
76731;SDS011;65656;51.130;13.658;2023-07-08T20:34:45;7.40;;;6.78;;
76731;SDS011;65656;51.130;13.658;2023-07-08T20:38:46;7.70;;;6.10;;
76731;SDS011;65656;51.130;13.658;2023-07-08T20:42:48;8.25;;;7.55;;
76731;SDS011;65656;51.130;13.658;2023-07-08T20:46:50;6.47;;;5.05;;
76731;SDS011;65656;51.130;13.658;2023-07-08T20:50:54;6.60;;;5.57;;
76731;SDS011;65656;51.130;13.658;2023-07-08T20:54:55;8.13;;;7.35;;
76731;SDS011;65656;51.130;13.658;2023-07-08T20:58:57;8.05;;;5.68;;
76731;SDS011;65656;51.130;13.658;2023-07-08T21:02:58;6.85;;;5.80;;
76731;SDS011;65656;51.130;13.658;2023-07-08T21:07:01;10.52;;;9.57;;
76731;SDS011;65656;51.130;13.658;2023-07-08T21:11:04;11.50;;;10.68;;
76731;SDS011;65656;51.130;13.658;2023-07-08T21:15:07;8.90;;;6.72;;
76731;SDS011;65656;51.130;13.658;2023-07-08T21:19:09;7.85;;;7.05;;
76731;SDS011;65656;51.130;13.658;2023-07-08T21:23:14;7.90;;;6.88;;
76731;SDS011;65656;51.130;13.658;2023-07-08T21:27:19;10.20;;;8.65;;
76731;SDS011;65656;51.130;13.658;2023-07-08T21:31:22;8.20;;;6.80;;
76731;SDS011;65656;51.130;13.658;2023-07-08T21:39:29;8.02;;;7.22;;
76731;SDS011;65656;51.130;13.658;2023-07-08T21:43:32;9.15;;;8.25;;
76731;SDS011;65656;51.130;13.658;2023-07-08T21:47:34;8.25;;;7.03;;
76731;SDS011;65656;51.130;13.658;2023-07-08T21:51:35;9.30;;;8.40;;
76731;SDS011;65656;51.130;13.658;2023-07-08T21:55:38;7.53;;;6.80;;
76731;SDS011;65656;51.130;13.658;2023-07-08T21:59:40;8.13;;;7.30;;
76731;SDS011;65656;51.130;13.658;2023-07-08T22:03:41;8.57;;;6.63;;
76731;SDS011;65656;51.130;13.658;2023-07-08T22:07:43;8.00;;;6.72;;
76731;SDS011;65656;51.130;13.658;2023-07-08T22:11:46;8.93;;;8.02;;
76731;SDS011;65656;51.130;13.658;2023-07-08T22:15:48;10.30;;;9.40;;
76731;SDS011;65656;51.130;13.658;2023-07-08T22:19:49;9.15;;;7.18;;
76731;SDS011;65656;51.130;13.658;2023-07-08T22:23:51;7.70;;;6.95;;
76731;SDS011;65656;51.130;13.658;2023-07-08T22:27:54;11.13;;;10.23;;
76731;SDS011;65656;51.130;13.658;2023-07-08T22:31:55;9.40;;;8.48;;
76731;SDS011;65656;51.130;13.658;2023-07-08T22:35:57;10.15;;;9.10;;
76731;SDS011;65656;51.130;13.658;2023-07-08T22:39:58;7.40;;;6.60;;
76731;SDS011;65656;51.130;13.658;2023-07-08T22:44:01;11.30;;;10.27;;
76731;SDS011;65656;51.130;13.658;2023-07-08T22:48:04;8.48;;;7.65;;
76731;SDS011;65656;51.130;13.658;2023-07-08T22:52:07;11.00;;;9.85;;
76731;SDS011;65656;51.130;13.658;2023-07-08T22:56:19;8.60;;;7.50;;
76731;SDS011;65656;51.130;13.658;2023-07-08T23:00:23;9.38;;;8.05;;
76731;SDS011;65656;51.130;13.658;2023-07-08T23:04:26;9.15;;;8.10;;
76731;SDS011;65656;51.130;13.658;2023-07-08T23:08:28;13.20;;;12.00;;
76731;SDS011;65656;51.130;13.658;2023-07-08T23:12:31;11.38;;;9.18;;
76731;SDS011;65656;51.130;13.658;2023-07-08T23:16:34;10.15;;;8.98;;
76731;SDS011;65656;51.130;13.658;2023-07-08T23:20:35;11.82;;;10.63;;
76731;SDS011;65656;51.130;13.658;2023-07-08T23:24:37;10.98;;;9.73;;
76731;SDS011;65656;51.130;13.658;2023-07-08T23:28:38;12.30;;;8.23;;
76731;SDS011;65656;51.130;13.658;2023-07-08T23:32:41;10.60;;;9.68;;
76731;SDS011;65656;51.130;13.658;2023-07-08T23:36:43;10.63;;;9.52;;
76731;SDS011;65656;51.130;13.658;2023-07-08T23:40:46;11.15;;;10.05;;
76731;SDS011;65656;51.130;13.658;2023-07-08T23:44:49;11.77;;;10.68;;
76731;SDS011;65656;51.130;13.658;2023-07-08T23:48:52;11.38;;;10.30;;
76731;SDS011;65656;51.130;13.658;2023-07-08T23:52:55;14.93;;;8.60;;
76731;SDS011;65656;51.130;13.658;2023-07-08T23:56:57;10.60;;;9.25;;
